PWSweather.com
Personal Weather Stations
Station Observations
BARMORENO
El Ranal, Torre Del CampoES 23640

El RanalTorre Del CampoES 23640

Lat: 37.7683675, Lon: -3.9027072

Elevation: 2198.162

Station Type: PCE-FWS 20

http://www.bartolomemoreno.com/tiempo

High Low Average
Temperature 91.2°F32.9°C 70.0°F21.1°C 81.0°F27.2°C
Dew Point 54.8°F12.7°C 46.9°F8.3°C 50.9°F10.5°C
Winds 9.2 mph 14.8 kmh 0.7 mph 1.1 kmh 5.0 mph SE8.0 kmh SE
Wind Gusts 16.8 mph27.0 kmh 2.2 mph3.5 kmh 9.0 mph14.5 kmh
Humidity 50% 23% 36%
Pressure 30.13 in1020.3 mb 30.02 in1016.6 mb -
Precipitation 0.00 in0.0 mm - -
Hour Temp Dew Point Humidity Winds Wind Gusts Pressure Precip Precip Rate Daily Precip Total
12:00 AM 77.5°F25.3°C 49.2°F9.6°C 37% 3.8 mph SSE6.1 kmh SSE 6.9 mph11.1 kmh 30.11 in1019.6 mb 0.00 in0.0 mm 0.00 in0.0 mm 0.00 in0.0 mm
12:05 AM 77.5°F25.3°C 49.2°F9.6°C 37% 3.5 mph SSE5.6 kmh SSE 6.0 mph9.7 kmh 30.11 in1019.6 mb 0.00 in0.0 mm 0.00 in0.0 mm 0.00 in0.0 mm
12:10 AM 77.9°F25.5°C 49.6°F9.8°C 37% 4.1 mph S6.6 kmh S 7.6 mph12.2 kmh 30.11 in1019.6 mb 0.00 in0.0 mm 0.00 in0.0 mm 0.00 in0.0 mm
12:15 AM 77.9°F25.5°C 49.6°F9.8°C 37% 4.4 mph S7.1 kmh S 7.6 mph12.2 kmh 30.11 in1019.6 mb 0.00 in0.0 mm 0.00 in0.0 mm 0.00 in0.0 mm
12:25 AM 77.5°F25.3°C 49.2°F9.6°C 37% 5.0 mph S8.0 kmh S 9.2 mph14.8 kmh 30.11 in1019.6 mb 0.00 in0.0 mm 0.00 in0.0 mm 0.00 in0.0 mm
12:30 AM 77.5°F25.3°C 49.2°F9.6°C 37% 4.6 mph S7.4 kmh S 7.6 mph12.2 kmh 30.11 in1019.6 mb 0.00 in0.0 mm 0.00 in0.0 mm 0.00 in0.0 mm
12:35 AM 77.5°F25.3°C 49.2°F9.6°C 37% 5.0 mph S8.0 kmh S 8.3 mph13.4 kmh 30.11 in1019.6 mb 0.00 in0.0 mm 0.00 in0.0 mm 0.00 in0.0 mm
12:40 AM 77.5°F25.3°C 49.2°F9.6°C 37% 5.2 mph S8.4 kmh S 8.3 mph13.4 kmh 30.11 in1019.6 mb 0.00 in0.0 mm 0.00 in0.0 mm 0.00 in0.0 mm
12:45 AM 77.9°F25.5°C 49.6°F9.8°C 37% 5.3 mph SSE8.5 kmh SSE 7.6 mph12.2 kmh 30.11 in1019.6 mb 0.00 in0.0 mm 0.00 in0.0 mm 0.00 in0.0 mm
12:50 AM 77.5°F25.3°C 49.2°F9.6°C 37% 5.0 mph S8.0 kmh S 7.6 mph12.2 kmh 30.11 in1019.6 mb 0.00 in0.0 mm 0.00 in0.0 mm 0.00 in0.0 mm
12:55 AM 77.5°F25.3°C 49.2°F9.6°C 37% 4.6 mph S7.4 kmh S 6.9 mph11.1 kmh 30.11 in1019.6 mb 0.00 in0.0 mm 0.00 in0.0 mm 0.00 in0.0 mm
01:00 AM 77.2°F25.1°C 49.6°F9.8°C 38% 4.6 mph S7.4 kmh S 7.6 mph12.2 kmh 30.11 in1019.6 mb 0.00 in0.0 mm 0.00 in0.0 mm 0.00 in0.0 mm
01:05 AM 77.2°F25.1°C 49.6°F9.8°C 38% 4.5 mph SSE7.2 kmh SSE 7.6 mph12.2 kmh 30.11 in1019.6 mb 0.00 in0.0 mm 0.00 in0.0 mm 0.00 in0.0 mm
01:10 AM 76.6°F24.8°C 50.5°F10.3°C 40% 4.4 mph SE7.1 kmh SE 6.9 mph11.1 kmh 30.11 in1019.6 mb 0.00 in0.0 mm 0.00 in0.0 mm 0.00 in0.0 mm
01:15 AM 76.5°F24.7°C 50.4°F10.2°C 40% 4.6 mph SSE7.4 kmh SSE 7.6 mph12.2 kmh 30.10 in1019.3 mb 0.00 in0.0 mm 0.00 in0.0 mm 0.00 in0.0 mm
01:20 AM 76.3°F24.6°C 50.2°F10.1°C 40% 4.2 mph S6.8 kmh S 7.6 mph12.2 kmh 30.11 in1019.6 mb 0.00 in0.0 mm 0.00 in0.0 mm 0.00 in0.0 mm
01:25 AM 75.9°F24.4°C 50.6°F10.3°C 41% 3.5 mph S5.6 kmh S 6.0 mph9.7 kmh 30.11 in1019.6 mb 0.00 in0.0 mm 0.00 in0.0 mm 0.00 in0.0 mm
01:30 AM 75.9°F24.4°C 50.6°F10.3°C 41% 3.8 mph S6.1 kmh S 6.9 mph11.1 kmh 30.11 in1019.6 mb 0.00 in0.0 mm 0.00 in0.0 mm 0.00 in0.0 mm
01:35 AM 75.9°F24.4°C 50.6°F10.3°C 41% 4.0 mph S6.4 kmh S 6.9 mph11.1 kmh 30.11 in1019.6 mb 0.00 in0.0 mm 0.00 in0.0 mm 0.00 in0.0 mm
01:40 AM 76.1°F24.5°C 50.7°F10.4°C 41% 4.3 mph S6.9 kmh S 6.9 mph11.1 kmh 30.11 in1019.6 mb 0.00 in0.0 mm 0.00 in0.0 mm 0.00 in0.0 mm
01:45 AM 76.1°F24.5°C 50.7°F10.4°C 41% 5.3 mph S8.5 kmh S 9.2 mph14.8 kmh 30.11 in1019.6 mb 0.00 in0.0 mm 0.00 in0.0 mm 0.00 in0.0 mm
01:50 AM 75.6°F24.2°C 50.2°F10.1°C 41% 5.2 mph S8.4 kmh S 9.2 mph14.8 kmh 30.11 in1019.6 mb 0.00 in0.0 mm 0.00 in0.0 mm 0.00 in0.0 mm
01:55 AM 75.4°F24.1°C 50.7°F10.4°C 42% 4.9 mph SSE7.9 kmh SSE 8.3 mph13.4 kmh 30.11 in1019.6 mb 0.00 in0.0 mm 0.00 in0.0 mm 0.00 in0.0 mm
02:00 AM 75.4°F24.1°C 50.7°F10.4°C 42% 5.4 mph SSE8.7 kmh SSE 8.3 mph13.4 kmh 30.10 in1019.3 mb 0.00 in0.0 mm 0.00 in0.0 mm 0.00 in0.0 mm
02:05 AM 75.4°F24.1°C 50.7°F10.4°C 42% 5.3 mph S8.5 kmh S 8.3 mph13.4 kmh 30.10 in1019.3 mb 0.00 in0.0 mm 0.00 in0.0 mm 0.00 in0.0 mm
02:10 AM 75.0°F23.9°C 51.7°F10.9°C 44% 5.2 mph S8.4 kmh S 8.3 mph13.4 kmh 30.10 in1019.3 mb 0.00 in0.0 mm 0.00 in0.0 mm 0.00 in0.0 mm
02:15 AM 75.0°F23.9°C 51.7°F10.9°C 44% 5.2 mph S8.4 kmh S 8.3 mph13.4 kmh 30.10 in1019.3 mb 0.00 in0.0 mm 0.00 in0.0 mm 0.00 in0.0 mm
02:20 AM 74.8°F23.8°C 51.5°F10.8°C 44% 4.9 mph S7.9 kmh S 7.6 mph12.2 kmh 30.09 in1019.0 mb 0.00 in0.0 mm 0.00 in0.0 mm 0.00 in0.0 mm
02:25 AM 74.8°F23.8°C 51.5°F10.8°C 44% 5.1 mph S8.2 kmh S 9.2 mph14.8 kmh 30.09 in1019.0 mb 0.00 in0.0 mm 0.00 in0.0 mm 0.00 in0.0 mm
02:30 AM 74.8°F23.8°C 51.5°F10.8°C 44% 5.6 mph S9.0 kmh S 9.8 mph15.8 kmh 30.09 in1019.0 mb 0.00 in0.0 mm 0.00 in0.0 mm 0.00 in0.0 mm
02:35 AM 75.2°F24.0°C 50.6°F10.3°C 42% 5.8 mph S9.3 kmh S 9.8 mph15.8 kmh 30.09 in1019.0 mb 0.00 in0.0 mm 0.00 in0.0 mm 0.00 in0.0 mm
02:40 AM 75.0°F23.9°C 51.0°F10.6°C 43% 5.5 mph S8.9 kmh S 8.3 mph13.4 kmh 30.09 in1019.0 mb 0.00 in0.0 mm 0.00 in0.0 mm 0.00 in0.0 mm
02:45 AM 74.8°F23.8°C 50.9°F10.5°C 43% 4.6 mph S7.4 kmh S 8.3 mph13.4 kmh 30.09 in1019.0 mb 0.00 in0.0 mm 0.00 in0.0 mm 0.00 in0.0 mm
02:50 AM 74.8°F23.8°C 50.9°F10.5°C 43% 3.2 mph SSE5.1 kmh SSE 8.3 mph13.4 kmh 30.09 in1019.0 mb 0.00 in0.0 mm 0.00 in0.0 mm 0.00 in0.0 mm
02:55 AM 74.8°F23.8°C 50.9°F10.5°C 43% 2.9 mph S4.7 kmh S 6.9 mph11.1 kmh 30.09 in1019.0 mb 0.00 in0.0 mm 0.00 in0.0 mm 0.00 in0.0 mm
03:00 AM 74.3°F23.5°C 51.6°F10.9°C 45% 4.2 mph S6.8 kmh S 7.6 mph12.2 kmh 30.09 in1019.0 mb 0.00 in0.0 mm 0.00 in0.0 mm 0.00 in0.0 mm
03:05 AM 74.3°F23.5°C 51.6°F10.9°C 45% 4.3 mph S6.9 kmh S 7.6 mph12.2 kmh 30.09 in1019.0 mb 0.00 in0.0 mm 0.00 in0.0 mm 0.00 in0.0 mm
03:10 AM 73.6°F23.1°C 51.0°F10.6°C 45% 4.2 mph S6.8 kmh S 8.3 mph13.4 kmh 30.09 in1019.0 mb 0.00 in0.0 mm 0.00 in0.0 mm 0.00 in0.0 mm
03:15 AM 73.6°F23.1°C 51.0°F10.6°C 45% 5.2 mph S8.4 kmh S 9.2 mph14.8 kmh 30.09 in1019.0 mb 0.00 in0.0 mm 0.00 in0.0 mm 0.00 in0.0 mm
03:20 AM 73.9°F23.3°C 51.3°F10.7°C 45% 5.4 mph S8.7 kmh S 9.2 mph14.8 kmh 30.09 in1019.0 mb 0.00 in0.0 mm 0.00 in0.0 mm 0.00 in0.0 mm
03:25 AM 74.1°F23.4°C 51.5°F10.8°C 45% 4.9 mph S7.9 kmh S 9.2 mph14.8 kmh 30.09 in1019.0 mb 0.00 in0.0 mm 0.00 in0.0 mm 0.00 in0.0 mm
03:30 AM 73.9°F23.3°C 50.7°F10.4°C 44% 4.4 mph S7.1 kmh S 7.6 mph12.2 kmh 30.08 in1018.6 mb 0.00 in0.0 mm 0.00 in0.0 mm 0.00 in0.0 mm
03:35 AM 73.9°F23.3°C 50.7°F10.4°C 44% 4.1 mph S6.6 kmh S 6.9 mph11.1 kmh 30.09 in1019.0 mb 0.00 in0.0 mm 0.00 in0.0 mm 0.00 in0.0 mm
03:40 AM 73.9°F23.3°C 50.7°F10.4°C 44% 4.4 mph S7.1 kmh S 7.6 mph12.2 kmh 30.08 in1018.6 mb 0.00 in0.0 mm 0.00 in0.0 mm 0.00 in0.0 mm
03:45 AM 74.1°F23.4°C 50.8°F10.4°C 44% 5.9 mph S9.5 kmh S 10.7 mph17.2 kmh 30.08 in1018.6 mb 0.00 in0.0 mm 0.00 in0.0 mm 0.00 in0.0 mm
03:50 AM 74.3°F23.5°C 50.4°F10.2°C 43% 6.3 mph S10.1 kmh S 10.7 mph17.2 kmh 30.08 in1018.6 mb 0.00 in0.0 mm 0.00 in0.0 mm 0.00 in0.0 mm
03:55 AM 74.7°F23.7°C 50.7°F10.4°C 43% 5.5 mph S8.9 kmh S 9.2 mph14.8 kmh 30.08 in1018.6 mb 0.00 in0.0 mm 0.00 in0.0 mm 0.00 in0.0 mm
04:00 AM 74.5°F23.6°C 50.5°F10.3°C 43% 4.2 mph S6.8 kmh S 7.6 mph12.2 kmh 30.08 in1018.6 mb 0.00 in0.0 mm 0.00 in0.0 mm 0.00 in0.0 mm
04:05 AM 74.7°F23.7°C 50.7°F10.4°C 43% 3.9 mph SSE6.3 kmh SSE 9.8 mph15.8 kmh 30.09 in1019.0 mb 0.00 in0.0 mm 0.00 in0.0 mm 0.00 in0.0 mm
04:10 AM 75.2°F24.0°C 49.9°F9.9°C 41% 3.0 mph S4.8 kmh S 9.8 mph15.8 kmh 30.08 in1018.6 mb 0.00 in0.0 mm 0.00 in0.0 mm 0.00 in0.0 mm
04:15 AM 75.2°F24.0°C 49.9°F9.9°C 41% 2.1 mph S3.4 kmh S 4.5 mph7.2 kmh 30.08 in1018.6 mb 0.00 in0.0 mm 0.00 in0.0 mm 0.00 in0.0 mm
04:20 AM 74.7°F23.7°C 50.1°F10.1°C 42% 3.6 mph S5.8 kmh S 6.9 mph11.1 kmh 30.08 in1018.6 mb 0.00 in0.0 mm 0.00 in0.0 mm 0.00 in0.0 mm
04:25 AM 74.1°F23.4°C 50.2°F10.1°C 43% 4.6 mph S7.4 kmh S 7.6 mph12.2 kmh 30.08 in1018.6 mb 0.00 in0.0 mm 0.00 in0.0 mm 0.00 in0.0 mm
04:30 AM 73.4°F23.0°C 50.8°F10.4°C 45% 4.8 mph S7.7 kmh S 7.6 mph12.2 kmh 30.08 in1018.6 mb 0.00 in0.0 mm 0.00 in0.0 mm 0.00 in0.0 mm
04:35 AM 73.2°F22.9°C 49.4°F9.7°C 43% 4.7 mph S7.6 kmh S 7.6 mph12.2 kmh 30.08 in1018.6 mb 0.00 in0.0 mm 0.00 in0.0 mm 0.00 in0.0 mm
04:40 AM 73.2°F22.9°C 49.4°F9.7°C 43% 3.8 mph S6.1 kmh S 6.0 mph9.7 kmh 30.08 in1018.6 mb 0.00 in0.0 mm 0.00 in0.0 mm 0.00 in0.0 mm
04:45 AM 73.6°F23.1°C 50.4°F10.2°C 44% 3.9 mph SSE6.3 kmh SSE 9.8 mph15.8 kmh 30.08 in1018.6 mb 0.00 in0.0 mm 0.00 in0.0 mm 0.00 in0.0 mm
04:50 AM 75.0°F23.9°C 50.4°F10.2°C 42% 4.0 mph SE6.4 kmh SE 9.8 mph15.8 kmh 30.08 in1018.6 mb 0.00 in0.0 mm 0.00 in0.0 mm 0.00 in0.0 mm
04:55 AM 74.8°F23.8°C 50.2°F10.1°C 42% 3.0 mph S4.8 kmh S 6.0 mph9.7 kmh 30.08 in1018.6 mb 0.00 in0.0 mm 0.00 in0.0 mm 0.00 in0.0 mm
05:00 AM 74.5°F23.6°C 49.9°F9.9°C 42% 2.7 mph S4.3 kmh S 4.5 mph7.2 kmh 30.08 in1018.6 mb 0.00 in0.0 mm 0.00 in0.0 mm 0.00 in0.0 mm
05:05 AM 74.5°F23.6°C 49.9°F9.9°C 42% 2.5 mph S4.0 kmh S 4.5 mph7.2 kmh 30.07 in1018.3 mb 0.00 in0.0 mm 0.00 in0.0 mm 0.00 in0.0 mm
05:10 AM 73.2°F22.9°C 48.8°F9.3°C 42% 2.3 mph S3.7 kmh S 4.5 mph7.2 kmh 30.08 in1018.6 mb 0.00 in0.0 mm 0.00 in0.0 mm 0.00 in0.0 mm
05:15 AM 72.9°F22.7°C 49.1°F9.5°C 43% 2.4 mph S3.9 kmh S 5.4 mph8.7 kmh 30.08 in1018.6 mb 0.00 in0.0 mm 0.00 in0.0 mm 0.00 in0.0 mm
05:20 AM 72.5°F22.5°C 49.4°F9.7°C 44% 2.9 mph S4.7 kmh S 5.4 mph8.7 kmh 30.08 in1018.6 mb 0.00 in0.0 mm 0.00 in0.0 mm 0.00 in0.0 mm
05:25 AM 72.3°F22.4°C 49.2°F9.6°C 44% 2.5 mph S4.0 kmh S 4.5 mph7.2 kmh 30.08 in1018.6 mb 0.00 in0.0 mm 0.00 in0.0 mm 0.00 in0.0 mm
05:30 AM 72.0°F22.2°C 48.9°F9.4°C 44% 1.9 mph S3.1 kmh S 3.8 mph6.1 kmh 30.08 in1018.6 mb 0.00 in0.0 mm 0.00 in0.0 mm 0.00 in0.0 mm
05:35 AM 71.6°F22.0°C 49.2°F9.6°C 45% 2.0 mph S3.2 kmh S 3.8 mph6.1 kmh 30.08 in1018.6 mb 0.00 in0.0 mm 0.00 in0.0 mm 0.00 in0.0 mm
05:40 AM 71.4°F21.9°C 50.2°F10.1°C 47% 2.5 mph S4.0 kmh S 4.5 mph7.2 kmh 30.08 in1018.6 mb 0.00 in0.0 mm 0.00 in0.0 mm 0.00 in0.0 mm
05:45 AM 71.2°F21.8°C 50.0°F10.0°C 47% 3.4 mph S5.5 kmh S 6.9 mph11.1 kmh 30.08 in1018.6 mb 0.00 in0.0 mm 0.00 in0.0 mm 0.00 in0.0 mm
05:50 AM 71.2°F21.8°C 50.0°F10.0°C 47% 3.2 mph S5.1 kmh S 6.9 mph11.1 kmh 30.08 in1018.6 mb 0.00 in0.0 mm 0.00 in0.0 mm 0.00 in0.0 mm
05:55 AM 71.1°F21.7°C 50.4°F10.2°C 48% 2.8 mph S4.5 kmh S 4.5 mph7.2 kmh 30.08 in1018.6 mb 0.00 in0.0 mm 0.00 in0.0 mm 0.00 in0.0 mm
06:00 AM 70.9°F21.6°C 50.2°F10.1°C 48% 3.1 mph S5.0 kmh S 4.5 mph7.2 kmh 30.08 in1018.6 mb 0.00 in0.0 mm 0.00 in0.0 mm 0.00 in0.0 mm
06:05 AM 70.9°F21.6°C 50.2°F10.1°C 48% 3.0 mph S4.8 kmh S 4.5 mph7.2 kmh 30.09 in1019.0 mb 0.00 in0.0 mm 0.00 in0.0 mm 0.00 in0.0 mm
06:10 AM 70.9°F21.6°C 50.2°F10.1°C 48% 3.0 mph S4.8 kmh S 4.5 mph7.2 kmh 30.09 in1019.0 mb 0.00 in0.0 mm 0.00 in0.0 mm 0.00 in0.0 mm
06:15 AM 70.7°F21.5°C 50.1°F10.1°C 48% 3.1 mph S5.0 kmh S 5.4 mph8.7 kmh 30.08 in1018.6 mb 0.00 in0.0 mm 0.00 in0.0 mm 0.00 in0.0 mm
06:20 AM 70.7°F21.5°C 50.1°F10.1°C 48% 2.8 mph S4.5 kmh S 5.4 mph8.7 kmh 30.08 in1018.6 mb 0.00 in0.0 mm 0.00 in0.0 mm 0.00 in0.0 mm
06:25 AM 70.7°F21.5°C 50.6°F10.3°C 49% 2.6 mph S4.2 kmh S 4.5 mph7.2 kmh 30.09 in1019.0 mb 0.00 in0.0 mm 0.00 in0.0 mm 0.00 in0.0 mm
06:30 AM 70.3°F21.3°C 50.3°F10.2°C 49% 2.9 mph SSW4.7 kmh SSW 4.5 mph7.2 kmh 30.08 in1018.6 mb 0.00 in0.0 mm 0.00 in0.0 mm 0.00 in0.0 mm
06:35 AM 70.3°F21.3°C 50.3°F10.2°C 49% 3.3 mph SW5.3 kmh SW 6.9 mph11.1 kmh 30.08 in1018.6 mb 0.00 in0.0 mm 0.00 in0.0 mm 0.00 in0.0 mm
06:40 AM 70.3°F21.3°C 50.3°F10.2°C 49% 3.8 mph S6.1 kmh S 6.9 mph11.1 kmh 30.09 in1019.0 mb 0.00 in0.0 mm 0.00 in0.0 mm 0.00 in0.0 mm
06:45 AM 70.3°F21.3°C 50.3°F10.2°C 49% 4.3 mph SSE6.9 kmh SSE 6.9 mph11.1 kmh 30.09 in1019.0 mb 0.00 in0.0 mm 0.00 in0.0 mm 0.00 in0.0 mm
06:50 AM 70.3°F21.3°C 50.8°F10.4°C 50% 4.2 mph SSE6.8 kmh SSE 6.9 mph11.1 kmh 30.09 in1019.0 mb 0.00 in0.0 mm 0.00 in0.0 mm 0.00 in0.0 mm
06:55 AM 70.3°F21.3°C 50.8°F10.4°C 50% 3.8 mph S6.1 kmh S 6.9 mph11.1 kmh 30.09 in1019.0 mb 0.00 in0.0 mm 0.00 in0.0 mm 0.00 in0.0 mm
07:00 AM 70.3°F21.3°C 50.8°F10.4°C 50% 3.6 mph S5.8 kmh S 6.0 mph9.7 kmh 30.09 in1019.0 mb 0.00 in0.0 mm 0.00 in0.0 mm 0.00 in0.0 mm
07:05 AM 70.2°F21.2°C 50.7°F10.4°C 50% 3.6 mph S5.8 kmh S 6.0 mph9.7 kmh 30.09 in1019.0 mb 0.00 in0.0 mm 0.00 in0.0 mm 0.00 in0.0 mm
07:10 AM 70.2°F21.2°C 50.7°F10.4°C 50% 3.6 mph S5.8 kmh S 6.0 mph9.7 kmh 30.09 in1019.0 mb 0.00 in0.0 mm 0.00 in0.0 mm 0.00 in0.0 mm
07:15 AM 70.0°F21.1°C 50.5°F10.3°C 50% 3.2 mph S5.1 kmh S 6.0 mph9.7 kmh 30.09 in1019.0 mb 0.00 in0.0 mm 0.00 in0.0 mm 0.00 in0.0 mm
07:20 AM 70.0°F21.1°C 50.5°F10.3°C 50% 3.4 mph S5.5 kmh S 6.9 mph11.1 kmh 30.09 in1019.0 mb 0.00 in0.0 mm 0.00 in0.0 mm 0.00 in0.0 mm
07:25 AM 70.3°F21.3°C 50.8°F10.4°C 50% 4.1 mph S6.6 kmh S 7.6 mph12.2 kmh 30.09 in1019.0 mb 0.00 in0.0 mm 0.00 in0.0 mm 0.00 in0.0 mm
07:30 AM 70.9°F21.6°C 50.8°F10.4°C 49% 4.6 mph S7.4 kmh S 7.6 mph12.2 kmh 30.09 in1019.0 mb 0.00 in0.0 mm 0.00 in0.0 mm 0.00 in0.0 mm
07:35 AM 71.1°F21.7°C 51.0°F10.6°C 49% 4.1 mph S6.6 kmh S 8.3 mph13.4 kmh 30.09 in1019.0 mb 0.00 in0.0 mm 0.00 in0.0 mm 0.00 in0.0 mm
07:40 AM 71.4°F21.9°C 51.8°F11.0°C 50% 3.2 mph S5.1 kmh S 8.3 mph13.4 kmh 30.09 in1019.0 mb 0.00 in0.0 mm 0.00 in0.0 mm 0.00 in0.0 mm
07:45 AM 71.6°F22.0°C 51.5°F10.8°C 49% 3.4 mph S5.5 kmh S 6.0 mph9.7 kmh 30.09 in1019.0 mb 0.00 in0.0 mm 0.00 in0.0 mm 0.00 in0.0 mm
07:50 AM 72.0°F22.2°C 51.8°F11.0°C 49% 3.2 mph S5.1 kmh S 6.0 mph9.7 kmh 30.10 in1019.3 mb 0.00 in0.0 mm 0.00 in0.0 mm 0.00 in0.0 mm
07:55 AM 72.1°F22.3°C 52.5°F11.4°C 50% 2.3 mph S3.7 kmh S 3.8 mph6.1 kmh 30.10 in1019.3 mb 0.00 in0.0 mm 0.00 in0.0 mm 0.00 in0.0 mm
08:00 AM 72.3°F22.4°C 52.7°F11.5°C 50% 2.1 mph S3.4 kmh S 4.5 mph7.2 kmh 30.10 in1019.3 mb 0.00 in0.0 mm 0.00 in0.0 mm 0.00 in0.0 mm
08:05 AM 72.9°F22.7°C 52.6°F11.4°C 49% 2.5 mph S4.0 kmh S 4.5 mph7.2 kmh 30.10 in1019.3 mb 0.00 in0.0 mm 0.00 in0.0 mm 0.00 in0.0 mm
08:10 AM 73.4°F23.0°C 52.5°F11.4°C 48% 2.5 mph S4.0 kmh S 4.5 mph7.2 kmh 30.10 in1019.3 mb 0.00 in0.0 mm 0.00 in0.0 mm 0.00 in0.0 mm
08:15 AM 74.1°F23.4°C 53.2°F11.8°C 48% 2.2 mph S3.5 kmh S 3.8 mph6.1 kmh 30.10 in1019.3 mb 0.00 in0.0 mm 0.00 in0.0 mm 0.00 in0.0 mm
08:20 AM 74.5°F23.6°C 53.5°F11.9°C 48% 2.2 mph S3.5 kmh S 3.8 mph6.1 kmh 30.10 in1019.3 mb 0.00 in0.0 mm 0.00 in0.0 mm 0.00 in0.0 mm
08:25 AM 74.8°F23.8°C 53.9°F12.2°C 48% 2.2 mph S3.5 kmh S 3.8 mph6.1 kmh 30.10 in1019.3 mb 0.00 in0.0 mm 0.00 in0.0 mm 0.00 in0.0 mm
08:30 AM 75.4°F24.1°C 53.8°F12.1°C 47% 1.7 mph S2.7 kmh S 3.8 mph6.1 kmh 30.10 in1019.3 mb 0.00 in0.0 mm 0.00 in0.0 mm 0.00 in0.0 mm
08:35 AM 76.1°F24.5°C 54.4°F12.4°C 47% 1.5 mph S2.4 kmh S 3.1 mph5.0 kmh 30.10 in1019.3 mb 0.00 in0.0 mm 0.00 in0.0 mm 0.00 in0.0 mm
08:40 AM 76.8°F24.9°C 54.5°F12.5°C 46% 1.7 mph S2.7 kmh S 3.1 mph5.0 kmh 30.11 in1019.6 mb 0.00 in0.0 mm 0.00 in0.0 mm 0.00 in0.0 mm
08:45 AM 77.4°F25.2°C 54.4°F12.4°C 45% 1.8 mph S2.9 kmh S 3.1 mph5.0 kmh 30.11 in1019.6 mb 0.00 in0.0 mm 0.00 in0.0 mm 0.00 in0.0 mm
08:50 AM 78.4°F25.8°C 54.1°F12.3°C 43% 1.5 mph S2.4 kmh S 3.1 mph5.0 kmh 30.11 in1019.6 mb 0.00 in0.0 mm 0.00 in0.0 mm 0.00 in0.0 mm
08:55 AM 79.9°F26.6°C 54.8°F12.7°C 42% 1.0 mph SSE1.6 kmh SSE 2.2 mph3.5 kmh 30.11 in1019.6 mb 0.00 in0.0 mm 0.00 in0.0 mm 0.00 in0.0 mm
09:00 AM 80.4°F26.9°C 53.2°F11.8°C 39% 0.7 mph E1.1 kmh E 2.2 mph3.5 kmh 30.11 in1019.6 mb 0.00 in0.0 mm 0.00 in0.0 mm 0.00 in0.0 mm
09:05 AM 80.4°F26.9°C 51.8°F11.0°C 37% 0.7 mph E1.1 kmh E 2.2 mph3.5 kmh 30.11 in1019.6 mb 0.00 in0.0 mm 0.00 in0.0 mm 0.00 in0.0 mm
09:10 AM 80.2°F26.8°C 50.9°F10.5°C 36% 0.9 mph E1.4 kmh E 2.2 mph3.5 kmh 30.11 in1019.6 mb 0.00 in0.0 mm 0.00 in0.0 mm 0.00 in0.0 mm
09:15 AM 80.2°F26.8°C 50.9°F10.5°C 36% 1.0 mph NE1.6 kmh NE 2.2 mph3.5 kmh 30.11 in1019.6 mb 0.00 in0.0 mm 0.00 in0.0 mm 0.00 in0.0 mm
09:20 AM 80.2°F26.8°C 51.6°F10.9°C 37% 1.0 mph NNE1.6 kmh NNE 3.1 mph5.0 kmh 30.11 in1019.6 mb 0.00 in0.0 mm 0.00 in0.0 mm 0.00 in0.0 mm
09:25 AM 80.1°F26.7°C 50.7°F10.4°C 36% 1.5 mph NE2.4 kmh NE 3.8 mph6.1 kmh 30.11 in1019.6 mb 0.00 in0.0 mm 0.00 in0.0 mm 0.00 in0.0 mm
09:30 AM 79.7°F26.5°C 50.4°F10.2°C 36% 1.9 mph NE3.1 kmh NE 3.8 mph6.1 kmh 30.12 in1020.0 mb 0.00 in0.0 mm 0.00 in0.0 mm 0.00 in0.0 mm
09:35 AM 79.9°F26.6°C 51.3°F10.7°C 37% 1.8 mph NNE2.9 kmh NNE 3.8 mph6.1 kmh 30.12 in1020.0 mb 0.00 in0.0 mm 0.00 in0.0 mm 0.00 in0.0 mm
09:40 AM 79.9°F26.6°C 52.0°F11.1°C 38% 1.4 mph NE2.3 kmh NE 3.8 mph6.1 kmh 30.12 in1020.0 mb 0.00 in0.0 mm 0.00 in0.0 mm 0.00 in0.0 mm
09:45 AM 80.4°F26.9°C 52.5°F11.4°C 38% 1.4 mph ENE2.3 kmh ENE 3.8 mph6.1 kmh 30.12 in1020.0 mb 0.00 in0.0 mm 0.00 in0.0 mm 0.00 in0.0 mm
09:50 AM 81.1°F27.3°C 52.4°F11.3°C 37% 1.2 mph E1.9 kmh E 3.8 mph6.1 kmh 30.12 in1020.0 mb 0.00 in0.0 mm 0.00 in0.0 mm 0.00 in0.0 mm
09:55 AM 81.5°F27.5°C 52.8°F11.6°C 37% 0.8 mph SSE1.3 kmh SSE 3.8 mph6.1 kmh 30.12 in1020.0 mb 0.00 in0.0 mm 0.00 in0.0 mm 0.00 in0.0 mm
10:00 AM 81.5°F27.5°C 52.0°F11.1°C 36% 1.8 mph E2.9 kmh E 4.5 mph7.2 kmh 30.12 in1020.0 mb 0.00 in0.0 mm 0.00 in0.0 mm 0.00 in0.0 mm
10:05 AM 81.5°F27.5°C 52.0°F11.1°C 36% 3.0 mph ENE4.8 kmh ENE 8.3 mph13.4 kmh 30.12 in1020.0 mb 0.00 in0.0 mm 0.00 in0.0 mm 0.00 in0.0 mm
10:10 AM 81.1°F27.3°C 51.7°F10.9°C 36% 4.2 mph ENE6.8 kmh ENE 8.3 mph13.4 kmh 30.12 in1020.0 mb 0.00 in0.0 mm 0.00 in0.0 mm 0.00 in0.0 mm
10:15 AM 81.1°F27.3°C 52.4°F11.3°C 37% 4.6 mph ENE7.4 kmh ENE 7.6 mph12.2 kmh 30.12 in1020.0 mb 0.00 in0.0 mm 0.00 in0.0 mm 0.00 in0.0 mm
10:20 AM 81.1°F27.3°C 52.4°F11.3°C 37% 4.5 mph NE7.2 kmh NE 7.6 mph12.2 kmh 30.12 in1020.0 mb 0.00 in0.0 mm 0.00 in0.0 mm 0.00 in0.0 mm
10:25 AM 81.5°F27.5°C 52.0°F11.1°C 36% 4.3 mph ENE6.9 kmh ENE 7.6 mph12.2 kmh 30.13 in1020.3 mb 0.00 in0.0 mm 0.00 in0.0 mm 0.00 in0.0 mm
10:30 AM 81.5°F27.5°C 51.3°F10.7°C 35% 4.3 mph NE6.9 kmh NE 9.2 mph14.8 kmh 30.13 in1020.3 mb 0.00 in0.0 mm 0.00 in0.0 mm 0.00 in0.0 mm
10:35 AM 81.5°F27.5°C 52.0°F11.1°C 36% 4.6 mph NE7.4 kmh NE 9.2 mph14.8 kmh 30.13 in1020.3 mb 0.00 in0.0 mm 0.00 in0.0 mm 0.00 in0.0 mm
10:40 AM 81.9°F27.7°C 51.6°F10.9°C 35% 5.0 mph ENE8.0 kmh ENE 9.2 mph14.8 kmh 30.13 in1020.3 mb 0.00 in0.0 mm 0.00 in0.0 mm 0.00 in0.0 mm
10:45 AM 81.9°F27.7°C 50.8°F10.4°C 34% 5.6 mph NE9.0 kmh NE 9.8 mph15.8 kmh 30.13 in1020.3 mb 0.00 in0.0 mm 0.00 in0.0 mm 0.00 in0.0 mm
10:50 AM 81.7°F27.6°C 50.6°F10.3°C 34% 6.2 mph NE10.0 kmh NE 9.8 mph15.8 kmh 30.13 in1020.3 mb 0.00 in0.0 mm 0.00 in0.0 mm 0.00 in0.0 mm
10:55 AM 81.9°F27.7°C 50.0°F10.0°C 33% 6.5 mph ENE10.5 kmh ENE 11.4 mph18.3 kmh 30.13 in1020.3 mb 0.00 in0.0 mm 0.00 in0.0 mm 0.00 in0.0 mm
11:00 AM 82.0°F27.8°C 50.1°F10.1°C 33% 7.3 mph ENE11.7 kmh ENE 11.4 mph18.3 kmh 30.13 in1020.3 mb 0.00 in0.0 mm 0.00 in0.0 mm 0.00 in0.0 mm
11:05 AM 82.0°F27.8°C 50.1°F10.1°C 33% 8.1 mph E13.0 kmh E 10.7 mph17.2 kmh 30.12 in1020.0 mb 0.00 in0.0 mm 0.00 in0.0 mm 0.00 in0.0 mm
11:10 AM 82.2°F27.9°C 50.3°F10.2°C 33% 7.2 mph ENE11.6 kmh ENE 11.4 mph18.3 kmh 30.13 in1020.3 mb 0.00 in0.0 mm 0.00 in0.0 mm 0.00 in0.0 mm
11:15 AM 82.8°F28.2°C 52.4°F11.3°C 35% 6.1 mph NE9.8 kmh NE 11.4 mph18.3 kmh 30.13 in1020.3 mb 0.00 in0.0 mm 0.00 in0.0 mm 0.00 in0.0 mm
11:20 AM 82.6°F28.1°C 52.2°F11.2°C 35% 7.3 mph NE11.7 kmh NE 13.0 mph20.9 kmh 30.13 in1020.3 mb 0.00 in0.0 mm 0.00 in0.0 mm 0.00 in0.0 mm
11:25 AM 82.8°F28.2°C 52.4°F11.3°C 35% 7.8 mph NE12.6 kmh NE 13.0 mph20.9 kmh 30.13 in1020.3 mb 0.00 in0.0 mm 0.00 in0.0 mm 0.00 in0.0 mm
11:30 AM 83.1°F28.4°C 52.7°F11.5°C 35% 6.5 mph ENE10.5 kmh ENE 10.7 mph17.2 kmh 30.12 in1020.0 mb 0.00 in0.0 mm 0.00 in0.0 mm 0.00 in0.0 mm
11:35 AM 83.3°F28.5°C 52.8°F11.6°C 35% 5.9 mph ENE9.5 kmh ENE 9.8 mph15.8 kmh 30.12 in1020.0 mb 0.00 in0.0 mm 0.00 in0.0 mm 0.00 in0.0 mm
11:40 AM 83.5°F28.6°C 52.2°F11.2°C 34% 5.5 mph NE8.9 kmh NE 9.8 mph15.8 kmh 30.12 in1020.0 mb 0.00 in0.0 mm 0.00 in0.0 mm 0.00 in0.0 mm
11:45 AM 83.8°F28.8°C 52.5°F11.4°C 34% 5.1 mph NE8.2 kmh NE 9.8 mph15.8 kmh 30.12 in1020.0 mb 0.00 in0.0 mm 0.00 in0.0 mm 0.00 in0.0 mm
11:50 AM 84.2°F29.0°C 52.0°F11.1°C 33% 4.7 mph NE7.6 kmh NE 9.8 mph15.8 kmh 30.12 in1020.0 mb 0.00 in0.0 mm 0.00 in0.0 mm 0.00 in0.0 mm
11:55 AM 84.4°F29.1°C 52.2°F11.2°C 33% 5.1 mph NE8.2 kmh NE 9.8 mph15.8 kmh 30.12 in1020.0 mb 0.00 in0.0 mm 0.00 in0.0 mm 0.00 in0.0 mm
12:00 PM 84.4°F29.1°C 52.2°F11.2°C 33% 6.4 mph E10.3 kmh E 9.8 mph15.8 kmh 30.12 in1020.0 mb 0.00 in0.0 mm 0.00 in0.0 mm 0.00 in0.0 mm
12:05 PM 84.4°F29.1°C 53.0°F11.7°C 34% 8.5 mph E13.7 kmh E 15.2 mph24.5 kmh 30.12 in1020.0 mb 0.00 in0.0 mm 0.00 in0.0 mm 0.00 in0.0 mm
12:10 PM 84.7°F29.3°C 53.3°F11.8°C 34% 8.8 mph E14.2 kmh E 15.2 mph24.5 kmh 30.11 in1019.6 mb 0.00 in0.0 mm 0.00 in0.0 mm 0.00 in0.0 mm
12:15 PM 85.3°F29.6°C 53.8°F12.1°C 34% 6.8 mph ENE10.9 kmh ENE 11.4 mph18.3 kmh 30.11 in1019.6 mb 0.00 in0.0 mm 0.00 in0.0 mm 0.00 in0.0 mm
12:20 PM 85.6°F29.8°C 54.1°F12.3°C 34% 6.9 mph ENE11.1 kmh ENE 13.0 mph20.9 kmh 30.11 in1019.6 mb 0.00 in0.0 mm 0.00 in0.0 mm 0.00 in0.0 mm
12:25 PM 85.8°F29.9°C 54.3°F12.4°C 34% 6.9 mph ENE11.1 kmh ENE 13.0 mph20.9 kmh 30.11 in1019.6 mb 0.00 in0.0 mm 0.00 in0.0 mm 0.00 in0.0 mm
12:30 PM 86.2°F30.1°C 52.9°F11.6°C 32% 5.7 mph NE9.2 kmh NE 13.0 mph20.9 kmh 30.11 in1019.6 mb 0.00 in0.0 mm 0.00 in0.0 mm 0.00 in0.0 mm
12:35 PM 86.4°F30.2°C 53.1°F11.7°C 32% 6.7 mph ENE10.8 kmh ENE 12.1 mph19.5 kmh 30.11 in1019.6 mb 0.00 in0.0 mm 0.00 in0.0 mm 0.00 in0.0 mm
12:40 PM 86.5°F30.3°C 52.4°F11.3°C 31% 7.5 mph ENE12.1 kmh ENE 12.1 mph19.5 kmh 30.11 in1019.6 mb 0.00 in0.0 mm 0.00 in0.0 mm 0.00 in0.0 mm
12:45 PM 86.5°F30.3°C 53.2°F11.8°C 32% 7.6 mph NE12.2 kmh NE 13.6 mph21.9 kmh 30.10 in1019.3 mb 0.00 in0.0 mm 0.00 in0.0 mm 0.00 in0.0 mm
12:50 PM 86.5°F30.3°C 53.2°F11.8°C 32% 7.4 mph NE11.9 kmh NE 13.6 mph21.9 kmh 30.10 in1019.3 mb 0.00 in0.0 mm 0.00 in0.0 mm 0.00 in0.0 mm
12:55 PM 86.9°F30.5°C 53.5°F11.9°C 32% 6.7 mph E10.8 kmh E 13.6 mph21.9 kmh 30.10 in1019.3 mb 0.00 in0.0 mm 0.00 in0.0 mm 0.00 in0.0 mm
01:00 PM 86.5°F30.3°C 53.2°F11.8°C 32% 7.6 mph ENE12.2 kmh ENE 15.2 mph24.5 kmh 30.10 in1019.3 mb 0.00 in0.0 mm 0.00 in0.0 mm 0.00 in0.0 mm
01:05 PM 86.5°F30.3°C 53.2°F11.8°C 32% 7.7 mph NE12.4 kmh NE 15.2 mph24.5 kmh 30.10 in1019.3 mb 0.00 in0.0 mm 0.00 in0.0 mm 0.00 in0.0 mm
01:10 PM 87.3°F30.7°C 52.1°F11.2°C 30% 7.0 mph ENE11.3 kmh ENE 13.0 mph20.9 kmh 30.09 in1019.0 mb 0.00 in0.0 mm 0.00 in0.0 mm 0.00 in0.0 mm
01:15 PM 87.1°F30.6°C 51.9°F11.1°C 30% 7.7 mph ENE12.4 kmh ENE 16.8 mph27.0 kmh 30.09 in1019.0 mb 0.00 in0.0 mm 0.00 in0.0 mm 0.00 in0.0 mm
01:20 PM 87.6°F30.9°C 52.4°F11.3°C 30% 7.1 mph ENE11.4 kmh ENE 16.8 mph27.0 kmh 30.09 in1019.0 mb 0.00 in0.0 mm 0.00 in0.0 mm 0.00 in0.0 mm
01:25 PM 87.8°F31.0°C 51.6°F10.9°C 29% 5.9 mph ENE9.5 kmh ENE 12.1 mph19.5 kmh 30.09 in1019.0 mb 0.00 in0.0 mm 0.00 in0.0 mm 0.00 in0.0 mm
01:30 PM 87.6°F30.9°C 52.4°F11.3°C 30% 6.7 mph E10.8 kmh E 15.2 mph24.5 kmh 30.09 in1019.0 mb 0.00 in0.0 mm 0.00 in0.0 mm 0.00 in0.0 mm
01:35 PM 87.8°F31.0°C 52.6°F11.4°C 30% 8.3 mph E13.4 kmh E 15.2 mph24.5 kmh 30.08 in1018.6 mb 0.00 in0.0 mm 0.00 in0.0 mm 0.00 in0.0 mm
01:40 PM 88.0°F31.1°C 52.7°F11.5°C 30% 8.6 mph ENE13.8 kmh ENE 14.5 mph23.3 kmh 30.08 in1018.6 mb 0.00 in0.0 mm 0.00 in0.0 mm 0.00 in0.0 mm
01:45 PM 87.8°F31.0°C 52.6°F11.4°C 30% 7.8 mph NE12.6 kmh NE 15.2 mph24.5 kmh 30.08 in1018.6 mb 0.00 in0.0 mm 0.00 in0.0 mm 0.00 in0.0 mm
01:50 PM 88.3°F31.3°C 52.1°F11.2°C 29% 7.4 mph NE11.9 kmh NE 15.2 mph24.5 kmh 30.08 in1018.6 mb 0.00 in0.0 mm 0.00 in0.0 mm 0.00 in0.0 mm
01:55 PM 88.7°F31.5°C 52.4°F11.3°C 29% 7.2 mph ENE11.6 kmh ENE 12.1 mph19.5 kmh 30.07 in1018.3 mb 0.00 in0.0 mm 0.00 in0.0 mm 0.00 in0.0 mm
02:00 PM 88.7°F31.5°C 51.5°F10.8°C 28% 7.7 mph ENE12.4 kmh ENE 15.9 mph25.6 kmh 30.07 in1018.3 mb 0.00 in0.0 mm 0.00 in0.0 mm 0.00 in0.0 mm
02:05 PM 88.2°F31.2°C 51.9°F11.1°C 29% 8.7 mph ENE14.0 kmh ENE 16.8 mph27.0 kmh 30.07 in1018.3 mb 0.00 in0.0 mm 0.00 in0.0 mm 0.00 in0.0 mm
02:10 PM 88.5°F31.4°C 52.3°F11.3°C 29% 9.2 mph ENE14.8 kmh ENE 16.8 mph27.0 kmh 30.07 in1018.3 mb 0.00 in0.0 mm 0.00 in0.0 mm 0.00 in0.0 mm
02:15 PM 88.3°F31.3°C 52.1°F11.2°C 29% 8.5 mph NE13.7 kmh NE 13.6 mph21.9 kmh 30.07 in1018.3 mb 0.00 in0.0 mm 0.00 in0.0 mm 0.00 in0.0 mm
02:20 PM 88.9°F31.6°C 52.6°F11.4°C 29% 6.7 mph NE10.8 kmh NE 13.6 mph21.9 kmh 30.07 in1018.3 mb 0.00 in0.0 mm 0.00 in0.0 mm 0.00 in0.0 mm
02:25 PM 89.2°F31.8°C 52.9°F11.6°C 29% 5.8 mph E9.3 kmh E 10.7 mph17.2 kmh 30.07 in1018.3 mb 0.00 in0.0 mm 0.00 in0.0 mm 0.00 in0.0 mm
02:30 PM 89.8°F32.1°C 52.4°F11.3°C 28% 6.6 mph ESE10.6 kmh ESE 15.2 mph24.5 kmh 30.06 in1017.9 mb 0.00 in0.0 mm 0.00 in0.0 mm 0.00 in0.0 mm
02:35 PM 89.6°F32.0°C 51.2°F10.7°C 27% 7.4 mph E11.9 kmh E 15.2 mph24.5 kmh 30.06 in1017.9 mb 0.00 in0.0 mm 0.00 in0.0 mm 0.00 in0.0 mm
02:40 PM 89.8°F32.1°C 51.4°F10.8°C 27% 6.6 mph ENE10.6 kmh ENE 15.2 mph24.5 kmh 30.06 in1017.9 mb 0.00 in0.0 mm 0.00 in0.0 mm 0.00 in0.0 mm
02:45 PM 90.0°F32.2°C 51.6°F10.9°C 27% 5.9 mph E9.5 kmh E 12.1 mph19.5 kmh 30.06 in1017.9 mb 0.00 in0.0 mm 0.00 in0.0 mm 0.00 in0.0 mm
02:50 PM 89.8°F32.1°C 51.4°F10.8°C 27% 7.6 mph E12.2 kmh E 15.2 mph24.5 kmh 30.06 in1017.9 mb 0.00 in0.0 mm 0.00 in0.0 mm 0.00 in0.0 mm
02:55 PM 90.1°F32.3°C 51.7°F10.9°C 27% 7.2 mph ENE11.6 kmh ENE 15.2 mph24.5 kmh 30.05 in1017.6 mb 0.00 in0.0 mm 0.00 in0.0 mm 0.00 in0.0 mm
03:00 PM 90.1°F32.3°C 51.7°F10.9°C 27% 6.2 mph ENE10.0 kmh ENE 13.0 mph20.9 kmh 30.05 in1017.6 mb 0.00 in0.0 mm 0.00 in0.0 mm 0.00 in0.0 mm
03:05 PM 90.1°F32.3°C 51.7°F10.9°C 27% 7.6 mph E12.2 kmh E 13.0 mph20.9 kmh 30.05 in1017.6 mb 0.00 in0.0 mm 0.00 in0.0 mm 0.00 in0.0 mm
03:10 PM 90.3°F32.4°C 51.9°F11.1°C 27% 7.6 mph E12.2 kmh E 13.6 mph21.9 kmh 30.05 in1017.6 mb 0.00 in0.0 mm 0.00 in0.0 mm 0.00 in0.0 mm
03:15 PM 90.1°F32.3°C 50.7°F10.4°C 26% 7.4 mph ENE11.9 kmh ENE 14.5 mph23.3 kmh 30.05 in1017.6 mb 0.00 in0.0 mm 0.00 in0.0 mm 0.00 in0.0 mm
03:20 PM 90.1°F32.3°C 51.7°F10.9°C 27% 7.5 mph ENE12.1 kmh ENE 14.5 mph23.3 kmh 30.05 in1017.6 mb 0.00 in0.0 mm 0.00 in0.0 mm 0.00 in0.0 mm
03:25 PM 90.3°F32.4°C 50.8°F10.4°C 26% 7.2 mph ENE11.6 kmh ENE 13.6 mph21.9 kmh 30.05 in1017.6 mb 0.00 in0.0 mm 0.00 in0.0 mm 0.00 in0.0 mm
03:30 PM 90.5°F32.5°C 52.0°F11.1°C 27% 6.7 mph ENE10.8 kmh ENE 13.6 mph21.9 kmh 30.04 in1017.3 mb 0.00 in0.0 mm 0.00 in0.0 mm 0.00 in0.0 mm
03:35 PM 90.7°F32.6°C 52.2°F11.2°C 27% 6.9 mph ENE11.1 kmh ENE 13.0 mph20.9 kmh 30.04 in1017.3 mb 0.00 in0.0 mm 0.00 in0.0 mm 0.00 in0.0 mm
03:40 PM 90.7°F32.6°C 52.2°F11.2°C 27% 6.7 mph ENE10.8 kmh ENE 13.0 mph20.9 kmh 30.04 in1017.3 mb 0.00 in0.0 mm 0.00 in0.0 mm 0.00 in0.0 mm
03:45 PM 90.7°F32.6°C 51.1°F10.6°C 26% 6.6 mph ENE10.6 kmh ENE 11.4 mph18.3 kmh 30.04 in1017.3 mb 0.00 in0.0 mm 0.00 in0.0 mm 0.00 in0.0 mm
03:50 PM 90.7°F32.6°C 51.1°F10.6°C 26% 7.0 mph NE11.3 kmh NE 13.0 mph20.9 kmh 30.04 in1017.3 mb 0.00 in0.0 mm 0.00 in0.0 mm 0.00 in0.0 mm
03:55 PM 90.5°F32.5°C 51.0°F10.6°C 26% 7.7 mph ENE12.4 kmh ENE 14.5 mph23.3 kmh 30.04 in1017.3 mb 0.00 in0.0 mm 0.00 in0.0 mm 0.00 in0.0 mm
04:00 PM 90.7°F32.6°C 51.1°F10.6°C 26% 7.1 mph ENE11.4 kmh ENE 14.5 mph23.3 kmh 30.04 in1017.3 mb 0.00 in0.0 mm 0.00 in0.0 mm 0.00 in0.0 mm
04:05 PM 90.9°F32.7°C 51.3°F10.7°C 26% 5.0 mph E8.0 kmh E 10.7 mph17.2 kmh 30.04 in1017.3 mb 0.00 in0.0 mm 0.00 in0.0 mm 0.00 in0.0 mm
04:10 PM 91.0°F32.8°C 51.4°F10.8°C 26% 4.6 mph E7.4 kmh E 12.1 mph19.5 kmh 30.04 in1017.3 mb 0.00 in0.0 mm 0.00 in0.0 mm 0.00 in0.0 mm
04:15 PM 91.0°F32.8°C 51.4°F10.8°C 26% 5.7 mph E9.2 kmh E 12.1 mph19.5 kmh 30.04 in1017.3 mb 0.00 in0.0 mm 0.00 in0.0 mm 0.00 in0.0 mm
04:20 PM 90.9°F32.7°C 51.3°F10.7°C 26% 6.3 mph E10.1 kmh E 15.9 mph25.6 kmh 30.03 in1016.9 mb 0.00 in0.0 mm 0.00 in0.0 mm 0.00 in0.0 mm
04:25 PM 91.0°F32.8°C 51.4°F10.8°C 26% 5.9 mph E9.5 kmh E 15.9 mph25.6 kmh 30.04 in1017.3 mb 0.00 in0.0 mm 0.00 in0.0 mm 0.00 in0.0 mm
04:30 PM 90.9°F32.7°C 51.3°F10.7°C 26% 5.8 mph E9.3 kmh E 12.1 mph19.5 kmh 30.03 in1016.9 mb 0.00 in0.0 mm 0.00 in0.0 mm 0.00 in0.0 mm
04:35 PM 90.9°F32.7°C 51.3°F10.7°C 26% 6.2 mph ENE10.0 kmh ENE 12.1 mph19.5 kmh 30.04 in1017.3 mb 0.00 in0.0 mm 0.00 in0.0 mm 0.00 in0.0 mm
04:40 PM 90.9°F32.7°C 50.2°F10.1°C 25% 5.8 mph NE9.3 kmh NE 10.7 mph17.2 kmh 30.03 in1016.9 mb 0.00 in0.0 mm 0.00 in0.0 mm 0.00 in0.0 mm
04:45 PM 90.9°F32.7°C 51.3°F10.7°C 26% 4.9 mph ENE7.9 kmh ENE 10.7 mph17.2 kmh 30.03 in1016.9 mb 0.00 in0.0 mm 0.00 in0.0 mm 0.00 in0.0 mm
04:50 PM 91.0°F32.8°C 50.4°F10.2°C 25% 4.7 mph E7.6 kmh E 10.7 mph17.2 kmh 30.03 in1016.9 mb 0.00 in0.0 mm 0.00 in0.0 mm 0.00 in0.0 mm
04:55 PM 91.2°F32.9°C 50.5°F10.3°C 25% 4.4 mph ENE7.1 kmh ENE 9.2 mph14.8 kmh 30.03 in1016.9 mb 0.00 in0.0 mm 0.00 in0.0 mm 0.00 in0.0 mm
05:00 PM 91.0°F32.8°C 50.4°F10.2°C 25% 3.6 mph ENE5.8 kmh ENE 9.2 mph14.8 kmh 30.03 in1016.9 mb 0.00 in0.0 mm 0.00 in0.0 mm 0.00 in0.0 mm
05:05 PM 91.0°F32.8°C 50.4°F10.2°C 25% 4.2 mph ENE6.8 kmh ENE 9.2 mph14.8 kmh 30.03 in1016.9 mb 0.00 in0.0 mm 0.00 in0.0 mm 0.00 in0.0 mm
05:10 PM 90.9°F32.7°C 50.2°F10.1°C 25% 4.9 mph ENE7.9 kmh ENE 10.7 mph17.2 kmh 30.03 in1016.9 mb 0.00 in0.0 mm 0.00 in0.0 mm 0.00 in0.0 mm
05:15 PM 91.2°F32.9°C 50.5°F10.3°C 25% 4.0 mph E6.4 kmh E 10.7 mph17.2 kmh 30.03 in1016.9 mb 0.00 in0.0 mm 0.00 in0.0 mm 0.00 in0.0 mm
05:20 PM 91.0°F32.8°C 50.4°F10.2°C 25% 3.3 mph E5.3 kmh E 6.0 mph9.7 kmh 30.03 in1016.9 mb 0.00 in0.0 mm 0.00 in0.0 mm 0.00 in0.0 mm
05:25 PM 91.0°F32.8°C 50.4°F10.2°C 25% 3.3 mph E5.3 kmh E 7.6 mph12.2 kmh 30.03 in1016.9 mb 0.00 in0.0 mm 0.00 in0.0 mm 0.00 in0.0 mm
05:30 PM 91.0°F32.8°C 49.3°F9.6°C 24% 3.9 mph E6.3 kmh E 9.2 mph14.8 kmh 30.02 in1016.6 mb 0.00 in0.0 mm 0.00 in0.0 mm 0.00 in0.0 mm
05:35 PM 90.9°F32.7°C 49.1°F9.5°C 24% 4.4 mph E7.1 kmh E 9.2 mph14.8 kmh 30.03 in1016.9 mb 0.00 in0.0 mm 0.00 in0.0 mm 0.00 in0.0 mm
05:40 PM 90.9°F32.7°C 50.2°F10.1°C 25% 3.8 mph E6.1 kmh E 9.2 mph14.8 kmh 30.03 in1016.9 mb 0.00 in0.0 mm 0.00 in0.0 mm 0.00 in0.0 mm
05:45 PM 90.9°F32.7°C 50.2°F10.1°C 25% 3.0 mph E4.8 kmh E 7.6 mph12.2 kmh 30.03 in1016.9 mb 0.00 in0.0 mm 0.00 in0.0 mm 0.00 in0.0 mm
05:50 PM 90.7°F32.6°C 50.1°F10.1°C 25% 2.7 mph ENE4.3 kmh ENE 7.6 mph12.2 kmh 30.03 in1016.9 mb 0.00 in0.0 mm 0.00 in0.0 mm 0.00 in0.0 mm
05:55 PM 90.5°F32.5°C 49.9°F9.9°C 25% 3.7 mph E6.0 kmh E 7.6 mph12.2 kmh 30.03 in1016.9 mb 0.00 in0.0 mm 0.00 in0.0 mm 0.00 in0.0 mm
06:00 PM 90.5°F32.5°C 49.9°F9.9°C 25% 3.7 mph ENE6.0 kmh ENE 7.6 mph12.2 kmh 30.03 in1016.9 mb 0.00 in0.0 mm 0.00 in0.0 mm 0.00 in0.0 mm
06:05 PM 90.5°F32.5°C 48.8°F9.3°C 24% 3.2 mph E5.1 kmh E 7.6 mph12.2 kmh 30.03 in1016.9 mb 0.00 in0.0 mm 0.00 in0.0 mm 0.00 in0.0 mm
06:10 PM 90.3°F32.4°C 48.7°F9.3°C 24% 3.9 mph E6.3 kmh E 7.6 mph12.2 kmh 30.03 in1016.9 mb 0.00 in0.0 mm 0.00 in0.0 mm 0.00 in0.0 mm
06:15 PM 90.1°F32.3°C 48.5°F9.2°C 24% 3.8 mph ENE6.1 kmh ENE 7.6 mph12.2 kmh 30.03 in1016.9 mb 0.00 in0.0 mm 0.00 in0.0 mm 0.00 in0.0 mm
06:20 PM 90.0°F32.2°C 48.4°F9.1°C 24% 2.8 mph ENE4.5 kmh ENE 7.6 mph12.2 kmh 30.03 in1016.9 mb 0.00 in0.0 mm 0.00 in0.0 mm 0.00 in0.0 mm
06:25 PM 89.8°F32.1°C 48.2°F9.0°C 24% 3.1 mph ENE5.0 kmh ENE 7.6 mph12.2 kmh 30.03 in1016.9 mb 0.00 in0.0 mm 0.00 in0.0 mm 0.00 in0.0 mm
06:30 PM 89.8°F32.1°C 48.2°F9.0°C 24% 3.9 mph ENE6.3 kmh ENE 7.6 mph12.2 kmh 30.03 in1016.9 mb 0.00 in0.0 mm 0.00 in0.0 mm 0.00 in0.0 mm
06:35 PM 89.6°F32.0°C 46.9°F8.3°C 23% 3.9 mph ENE6.3 kmh ENE 6.9 mph11.1 kmh 30.03 in1016.9 mb 0.00 in0.0 mm 0.00 in0.0 mm 0.00 in0.0 mm
06:40 PM 89.4°F31.9°C 47.9°F8.8°C 24% 3.5 mph ENE5.6 kmh ENE 6.0 mph9.7 kmh 30.03 in1016.9 mb 0.00 in0.0 mm 0.00 in0.0 mm 0.00 in0.0 mm
06:45 PM 89.4°F31.9°C 47.9°F8.8°C 24% 3.3 mph ENE5.3 kmh ENE 6.0 mph9.7 kmh 30.03 in1016.9 mb 0.00 in0.0 mm 0.00 in0.0 mm 0.00 in0.0 mm
06:50 PM 88.9°F31.6°C 49.6°F9.8°C 26% 2.6 mph E4.2 kmh E 5.4 mph8.7 kmh 30.03 in1016.9 mb 0.00 in0.0 mm 0.00 in0.0 mm 0.00 in0.0 mm
06:55 PM 87.3°F30.7°C 51.2°F10.7°C 29% 2.2 mph SSE3.5 kmh SSE 4.5 mph7.2 kmh 30.03 in1016.9 mb 0.00 in0.0 mm 0.00 in0.0 mm 0.00 in0.0 mm
07:00 PM 85.8°F29.9°C 52.6°F11.4°C 32% 2.7 mph S4.3 kmh S 4.5 mph7.2 kmh 30.03 in1016.9 mb 0.00 in0.0 mm 0.00 in0.0 mm 0.00 in0.0 mm
07:05 PM 85.8°F29.9°C 52.6°F11.4°C 32% 2.6 mph SSW4.2 kmh SSW 3.8 mph6.1 kmh 30.03 in1016.9 mb 0.00 in0.0 mm 0.00 in0.0 mm 0.00 in0.0 mm
07:10 PM 83.7°F28.7°C 53.2°F11.8°C 35% 2.4 mph SW3.9 kmh SW 4.5 mph7.2 kmh 30.04 in1017.3 mb 0.00 in0.0 mm 0.00 in0.0 mm 0.00 in0.0 mm
07:15 PM 82.8°F28.2°C 52.4°F11.3°C 35% 2.8 mph SSW4.5 kmh SSW 4.5 mph7.2 kmh 30.04 in1017.3 mb 0.00 in0.0 mm 0.00 in0.0 mm 0.00 in0.0 mm
07:20 PM 82.4°F28.0°C 52.0°F11.1°C 35% 3.1 mph S5.0 kmh S 5.4 mph8.7 kmh 30.03 in1016.9 mb 0.00 in0.0 mm 0.00 in0.0 mm 0.00 in0.0 mm
07:25 PM 82.0°F27.8°C 49.3°F9.6°C 32% 3.3 mph S5.3 kmh S 5.4 mph8.7 kmh 30.04 in1017.3 mb 0.00 in0.0 mm 0.00 in0.0 mm 0.00 in0.0 mm
07:30 PM 81.9°F27.7°C 49.2°F9.6°C 32% 4.0 mph S6.4 kmh S 6.9 mph11.1 kmh 30.04 in1017.3 mb 0.00 in0.0 mm 0.00 in0.0 mm 0.00 in0.0 mm
07:35 PM 81.9°F27.7°C 49.2°F9.6°C 32% 4.6 mph S7.4 kmh S 7.6 mph12.2 kmh 30.03 in1016.9 mb 0.00 in0.0 mm 0.00 in0.0 mm 0.00 in0.0 mm
07:40 PM 81.5°F27.5°C 48.8°F9.3°C 32% 4.7 mph S7.6 kmh S 7.6 mph12.2 kmh 30.04 in1017.3 mb 0.00 in0.0 mm 0.00 in0.0 mm 0.00 in0.0 mm
07:45 PM 81.7°F27.6°C 49.0°F9.4°C 32% 4.7 mph S7.6 kmh S 8.3 mph13.4 kmh 30.04 in1017.3 mb 0.00 in0.0 mm 0.00 in0.0 mm 0.00 in0.0 mm
07:50 PM 81.3°F27.4°C 48.7°F9.3°C 32% 4.8 mph S7.7 kmh S 8.3 mph13.4 kmh 30.04 in1017.3 mb 0.00 in0.0 mm 0.00 in0.0 mm 0.00 in0.0 mm
07:55 PM 81.3°F27.4°C 48.7°F9.3°C 32% 4.8 mph S7.7 kmh S 8.3 mph13.4 kmh 30.04 in1017.3 mb 0.00 in0.0 mm 0.00 in0.0 mm 0.00 in0.0 mm
08:00 PM 81.1°F27.3°C 47.7°F8.7°C 31% 5.1 mph S8.2 kmh S 9.2 mph14.8 kmh 30.04 in1017.3 mb 0.00 in0.0 mm 0.00 in0.0 mm 0.00 in0.0 mm
08:05 PM 81.0°F27.2°C 47.5°F8.6°C 31% 5.6 mph S9.0 kmh S 9.2 mph14.8 kmh 30.04 in1017.3 mb 0.00 in0.0 mm 0.00 in0.0 mm 0.00 in0.0 mm
08:10 PM 80.8°F27.1°C 47.4°F8.6°C 31% 5.6 mph S9.0 kmh S 9.2 mph14.8 kmh 30.04 in1017.3 mb 0.00 in0.0 mm 0.00 in0.0 mm 0.00 in0.0 mm
08:15 PM 80.8°F27.1°C 47.4°F8.6°C 31% 5.2 mph S8.4 kmh S 7.6 mph12.2 kmh 30.04 in1017.3 mb 0.00 in0.0 mm 0.00 in0.0 mm 0.00 in0.0 mm
08:20 PM 80.8°F27.1°C 47.4°F8.6°C 31% 5.2 mph S8.4 kmh S 7.6 mph12.2 kmh 30.04 in1017.3 mb 0.00 in0.0 mm 0.00 in0.0 mm 0.00 in0.0 mm
08:25 PM 80.8°F27.1°C 47.4°F8.6°C 31% 5.7 mph S9.2 kmh S 8.3 mph13.4 kmh 30.04 in1017.3 mb 0.00 in0.0 mm 0.00 in0.0 mm 0.00 in0.0 mm
08:30 PM 80.6°F27.0°C 47.2°F8.4°C 31% 6.1 mph S9.8 kmh S 8.3 mph13.4 kmh 30.04 in1017.3 mb 0.00 in0.0 mm 0.00 in0.0 mm 0.00 in0.0 mm
08:35 PM 80.6°F27.0°C 47.2°F8.4°C 31% 5.8 mph S9.3 kmh S 8.3 mph13.4 kmh 30.04 in1017.3 mb 0.00 in0.0 mm 0.00 in0.0 mm 0.00 in0.0 mm
08:40 PM 80.6°F27.0°C 47.2°F8.4°C 31% 5.9 mph S9.5 kmh S 9.2 mph14.8 kmh 30.05 in1017.6 mb 0.00 in0.0 mm 0.00 in0.0 mm 0.00 in0.0 mm
08:45 PM 80.6°F27.0°C 47.2°F8.4°C 31% 6.0 mph S9.7 kmh S 9.2 mph14.8 kmh 30.05 in1017.6 mb 0.00 in0.0 mm 0.00 in0.0 mm 0.00 in0.0 mm
08:50 PM 80.6°F27.0°C 48.1°F8.9°C 32% 5.7 mph S9.2 kmh S 8.3 mph13.4 kmh 30.05 in1017.6 mb 0.00 in0.0 mm 0.00 in0.0 mm 0.00 in0.0 mm
08:55 PM 80.6°F27.0°C 48.1°F8.9°C 32% 5.6 mph S9.0 kmh S 8.3 mph13.4 kmh 30.05 in1017.6 mb 0.00 in0.0 mm 0.00 in0.0 mm 0.00 in0.0 mm
09:00 PM 80.4°F26.9°C 48.7°F9.3°C 33% 5.7 mph S9.2 kmh S 8.3 mph13.4 kmh 30.05 in1017.6 mb 0.00 in0.0 mm 0.00 in0.0 mm 0.00 in0.0 mm
09:05 PM 80.4°F26.9°C 48.7°F9.3°C 33% 5.9 mph S9.5 kmh S 7.6 mph12.2 kmh 30.05 in1017.6 mb 0.00 in0.0 mm 0.00 in0.0 mm 0.00 in0.0 mm
09:10 PM 80.1°F26.7°C 48.4°F9.1°C 33% 5.9 mph S9.5 kmh S 7.6 mph12.2 kmh 30.05 in1017.6 mb 0.00 in0.0 mm 0.00 in0.0 mm 0.00 in0.0 mm
09:15 PM 80.1°F26.7°C 48.4°F9.1°C 33% 5.5 mph S8.9 kmh S 7.6 mph12.2 kmh 30.05 in1017.6 mb 0.00 in0.0 mm 0.00 in0.0 mm 0.00 in0.0 mm
09:20 PM 80.1°F26.7°C 48.4°F9.1°C 33% 5.2 mph S8.4 kmh S 8.3 mph13.4 kmh 30.05 in1017.6 mb 0.00 in0.0 mm 0.00 in0.0 mm 0.00 in0.0 mm
09:25 PM 80.1°F26.7°C 48.4°F9.1°C 33% 5.3 mph S8.5 kmh S 8.3 mph13.4 kmh 30.05 in1017.6 mb 0.00 in0.0 mm 0.00 in0.0 mm 0.00 in0.0 mm
09:30 PM 80.2°F26.8°C 49.4°F9.7°C 34% 5.3 mph S8.5 kmh S 8.3 mph13.4 kmh 30.06 in1017.9 mb 0.00 in0.0 mm 0.00 in0.0 mm 0.00 in0.0 mm
09:35 PM 80.1°F26.7°C 49.2°F9.6°C 34% 4.3 mph S6.9 kmh S 8.3 mph13.4 kmh 30.05 in1017.6 mb 0.00 in0.0 mm 0.00 in0.0 mm 0.00 in0.0 mm
09:40 PM 80.1°F26.7°C 49.2°F9.6°C 34% 2.6 mph SSE4.2 kmh SSE 6.9 mph11.1 kmh 30.06 in1017.9 mb 0.00 in0.0 mm 0.00 in0.0 mm 0.00 in0.0 mm
09:45 PM 80.2°F26.8°C 48.6°F9.2°C 33% 1.0 mph SE1.6 kmh SE 4.5 mph7.2 kmh 30.06 in1017.9 mb 0.00 in0.0 mm 0.00 in0.0 mm 0.00 in0.0 mm
09:50 PM 80.6°F27.0°C 48.9°F9.4°C 33% 1.6 mph SSE2.6 kmh SSE 7.6 mph12.2 kmh 30.06 in1017.9 mb 0.00 in0.0 mm 0.00 in0.0 mm 0.00 in0.0 mm
09:55 PM 81.3°F27.4°C 49.5°F9.7°C 33% 3.1 mph S5.0 kmh S 8.3 mph13.4 kmh 30.06 in1017.9 mb 0.00 in0.0 mm 0.00 in0.0 mm 0.00 in0.0 mm
10:00 PM 81.5°F27.5°C 49.7°F9.8°C 33% 3.9 mph S6.3 kmh S 8.3 mph13.4 kmh 30.07 in1018.3 mb 0.00 in0.0 mm 0.00 in0.0 mm 0.00 in0.0 mm
10:05 PM 81.7°F27.6°C 49.8°F9.9°C 33% 5.0 mph S8.0 kmh S 13.0 mph20.9 kmh 30.06 in1017.9 mb 0.00 in0.0 mm 0.00 in0.0 mm 0.00 in0.0 mm
10:10 PM 82.2°F27.9°C 51.1°F10.6°C 34% 5.5 mph SSW8.9 kmh SSW 13.0 mph20.9 kmh 30.06 in1017.9 mb 0.00 in0.0 mm 0.00 in0.0 mm 0.00 in0.0 mm
10:15 PM 82.8°F28.2°C 53.1°F11.7°C 36% 5.1 mph SW8.2 kmh SW 13.0 mph20.9 kmh 30.07 in1018.3 mb 0.00 in0.0 mm 0.00 in0.0 mm 0.00 in0.0 mm
10:20 PM 82.9°F28.3°C 53.3°F11.8°C 36% 4.4 mph WSW7.1 kmh WSW 10.7 mph17.2 kmh 30.07 in1018.3 mb 0.00 in0.0 mm 0.00 in0.0 mm 0.00 in0.0 mm
10:25 PM 83.3°F28.5°C 52.8°F11.6°C 35% 5.5 mph SW8.9 kmh SW 12.1 mph19.5 kmh 30.07 in1018.3 mb 0.00 in0.0 mm 0.00 in0.0 mm 0.00 in0.0 mm
10:30 PM 83.5°F28.6°C 53.0°F11.7°C 35% 5.7 mph SSW9.2 kmh SSW 12.1 mph19.5 kmh 30.07 in1018.3 mb 0.00 in0.0 mm 0.00 in0.0 mm 0.00 in0.0 mm
10:35 PM 83.3°F28.5°C 52.8°F11.6°C 35% 4.5 mph SSW7.2 kmh SSW 10.7 mph17.2 kmh 30.07 in1018.3 mb 0.00 in0.0 mm 0.00 in0.0 mm 0.00 in0.0 mm
10:40 PM 83.3°F28.5°C 52.8°F11.6°C 35% 4.4 mph SW7.1 kmh SW 10.7 mph17.2 kmh 30.07 in1018.3 mb 0.00 in0.0 mm 0.00 in0.0 mm 0.00 in0.0 mm
10:45 PM 83.1°F28.4°C 52.7°F11.5°C 35% 4.4 mph SW7.1 kmh SW 10.7 mph17.2 kmh 30.07 in1018.3 mb 0.00 in0.0 mm 0.00 in0.0 mm 0.00 in0.0 mm
10:50 PM 82.8°F28.2°C 52.4°F11.3°C 35% 3.8 mph SW6.1 kmh SW 9.2 mph14.8 kmh 30.07 in1018.3 mb 0.00 in0.0 mm 0.00 in0.0 mm 0.00 in0.0 mm
10:55 PM 82.8°F28.2°C 52.4°F11.3°C 35% 3.0 mph SW4.8 kmh SW 9.2 mph14.8 kmh 30.08 in1018.6 mb 0.00 in0.0 mm 0.00 in0.0 mm 0.00 in0.0 mm
11:00 PM 82.8°F28.2°C 53.1°F11.7°C 36% 2.9 mph WSW4.7 kmh WSW 9.2 mph14.8 kmh 30.08 in1018.6 mb 0.00 in0.0 mm 0.00 in0.0 mm 0.00 in0.0 mm
11:05 PM 82.8°F28.2°C 53.1°F11.7°C 36% 2.4 mph WSW3.9 kmh WSW 6.0 mph9.7 kmh 30.08 in1018.6 mb 0.00 in0.0 mm 0.00 in0.0 mm 0.00 in0.0 mm
11:10 PM 82.2°F27.9°C 50.3°F10.2°C 33% 2.1 mph SW3.4 kmh SW 6.9 mph11.1 kmh 30.08 in1018.6 mb 0.00 in0.0 mm 0.00 in0.0 mm 0.00 in0.0 mm
11:15 PM 82.2°F27.9°C 50.3°F10.2°C 33% 3.3 mph SSW5.3 kmh SSW 7.6 mph12.2 kmh 30.08 in1018.6 mb 0.00 in0.0 mm 0.00 in0.0 mm 0.00 in0.0 mm
11:20 PM 82.2°F27.9°C 50.3°F10.2°C 33% 4.1 mph S6.6 kmh S 8.3 mph13.4 kmh 30.08 in1018.6 mb 0.00 in0.0 mm 0.00 in0.0 mm 0.00 in0.0 mm
11:25 PM 82.2°F27.9°C 50.3°F10.2°C 33% 3.4 mph S5.5 kmh S 11.4 mph18.3 kmh 30.08 in1018.6 mb 0.00 in0.0 mm 0.00 in0.0 mm 0.00 in0.0 mm
11:30 PM 82.4°F28.0°C 52.0°F11.1°C 35% 2.8 mph S4.5 kmh S 11.4 mph18.3 kmh 30.08 in1018.6 mb 0.00 in0.0 mm 0.00 in0.0 mm 0.00 in0.0 mm
11:35 PM 82.4°F28.0°C 52.0°F11.1°C 35% 3.4 mph SSW5.5 kmh SSW 8.3 mph13.4 kmh 30.07 in1018.3 mb 0.00 in0.0 mm 0.00 in0.0 mm 0.00 in0.0 mm
11:40 PM 82.2°F27.9°C 50.3°F10.2°C 33% 3.4 mph SSW5.5 kmh SSW 7.6 mph12.2 kmh 30.08 in1018.6 mb 0.00 in0.0 mm 0.00 in0.0 mm 0.00 in0.0 mm
11:45 PM 82.2°F27.9°C 50.3°F10.2°C 33% 2.8 mph S4.5 kmh S 6.9 mph11.1 kmh 30.08 in1018.6 mb 0.00 in0.0 mm 0.00 in0.0 mm 0.00 in0.0 mm
11:50 PM 82.0°F27.8°C 50.1°F10.1°C 33% 2.8 mph SSW4.5 kmh SSW 6.9 mph11.1 kmh 30.08 in1018.6 mb 0.00 in0.0 mm 0.00 in0.0 mm 0.00 in0.0 mm
11:55 PM 82.0°F27.8°C 50.1°F10.1°C 33% 2.6 mph S4.2 kmh S 6.0 mph9.7 kmh 30.08 in1018.6 mb 0.00 in0.0 mm 0.00 in0.0 mm 0.00 in0.0 mm